createdAt,value
2023-02-03T00:03:41.053Z,67.42
2023-02-03T00:08:43.678Z,67.41
2023-02-03T00:13:46.132Z,67.21
2023-02-03T00:18:48.645Z,67.15
2023-02-03T00:23:51.191Z,66.98
2023-02-03T00:28:53.695Z,66.66
2023-02-03T00:33:57.457Z,66.65
2023-02-03T00:39:01.424Z,66.61
2023-02-03T00:44:04.280Z,66.77
2023-02-03T00:49:07.437Z,66.84
2023-02-03T00:54:11.366Z,66.98
2023-02-03T00:59:13.904Z,66.25
2023-02-03T01:04:16.333Z,66.67
2023-02-03T01:09:18.794Z,66.26
2023-02-03T01:14:21.206Z,66.70
2023-02-03T01:19:24.047Z,66.88
2023-02-03T01:24:26.515Z,66.97
2023-02-03T01:29:28.926Z,67.77
2023-02-03T01:34:31.320Z,67.59
2023-02-03T01:39:34.804Z,67.25
2023-02-03T01:44:48.017Z,67.50
2023-02-03T01:49:56.703Z,67.87
2023-02-03T01:55:02.907Z,68.00
2023-02-03T02:00:08.304Z,67.86
2023-02-03T02:05:25.996Z,68.27
2023-02-03T02:10:30.663Z,68.22
2023-02-03T02:15:55.429Z,68.11
2023-02-03T02:21:32.832Z,68.41
2023-02-03T02:27:12.360Z,68.38
2023-02-03T02:32:36.123Z,68.53
2023-02-03T02:37:51.389Z,68.66
2023-02-03T02:43:11.295Z,68.42
2023-02-03T02:48:20.644Z,68.30
2023-02-03T02:53:27.489Z,68.64
2023-02-03T02:58:32.446Z,68.37
2023-02-03T03:03:35.198Z,68.20
2023-02-03T03:09:01.655Z,68.31
2023-02-03T03:14:06.907Z,68.10
2023-02-03T03:19:13.127Z,68.18
2023-02-03T03:24:22.851Z,68.15
2023-02-03T03:29:31.578Z,67.94
2023-02-03T03:34:34.721Z,67.69
2023-02-03T03:39:54.387Z,67.84
2023-02-03T03:45:15.521Z,67.96
2023-02-03T03:50:27.027Z,67.85
2023-02-03T03:55:33.622Z,67.92
2023-02-03T04:00:39.862Z,67.91
2023-02-03T04:05:42.962Z,67.66
2023-02-03T04:10:45.749Z,67.69
2023-02-03T04:15:48.362Z,67.74
2023-02-03T04:20:51.246Z,67.51
2023-02-03T04:25:53.907Z,67.50
2023-02-03T04:30:56.313Z,67.15
2023-02-03T04:35:58.765Z,67.37
2023-02-03T04:41:01.176Z,67.23
2023-02-03T04:46:05.476Z,66.94
2023-02-03T04:51:09.381Z,66.75
2023-02-03T04:56:12.013Z,66.73
2023-02-03T05:01:14.598Z,66.38
2023-02-03T05:06:17.187Z,66.29
2023-02-03T05:11:19.825Z,66.10
2023-02-03T05:16:22.523Z,65.61
2023-02-03T05:21:25.094Z,65.50
2023-02-03T05:26:27.592Z,64.92
2023-02-03T05:31:30.080Z,64.73
2023-02-03T05:36:32.846Z,64.11
2023-02-03T05:41:54.116Z,64.00
2023-02-03T05:46:59.348Z,63.68
2023-02-03T05:52:01.886Z,63.43
2023-02-03T05:57:04.395Z,63.48
2023-02-03T06:02:06.978Z,62.75
2023-02-03T06:07:09.497Z,62.58
2023-02-03T06:12:12.019Z,62.45
2023-02-03T06:17:14.508Z,62.03
2023-02-03T06:22:16.883Z,61.65
2023-02-03T06:27:19.507Z,61.32
2023-02-03T06:32:22.124Z,61.41
2023-02-03T06:37:24.956Z,61.04
2023-02-03T06:42:27.897Z,60.28
2023-02-03T06:47:30.543Z,59.85
2023-02-03T06:52:33.078Z,59.72
2023-02-03T06:57:35.674Z,58.67
2023-02-03T07:02:38.226Z,57.87
2023-02-03T07:07:40.858Z,57.76
2023-02-03T07:12:44.998Z,57.37
2023-02-03T07:17:54.861Z,57.39
2023-02-03T07:22:58.730Z,56.37
2023-02-03T07:28:01.849Z,55.46
2023-02-03T07:33:04.714Z,54.85
2023-02-03T07:38:07.278Z,53.82
2023-02-03T07:43:09.788Z,52.10
2023-02-03T07:48:13.254Z,52.05
2023-02-03T07:53:16.059Z,52.10
2023-02-03T07:58:18.586Z,51.22
2023-02-03T08:03:21.117Z,50.36
2023-02-03T08:08:23.623Z,49.97
2023-02-03T08:13:26.183Z,49.38
2023-02-03T08:18:30.942Z,49.38
2023-02-03T08:23:34.790Z,49.46
2023-02-03T08:28:37.383Z,49.07
2023-02-03T08:33:40.062Z,48.48
2023-02-03T08:38:42.639Z,48.69
2023-02-03T08:43:45.887Z,48.34
2023-02-03T08:48:48.361Z,49.07
2023-02-03T08:53:50.915Z,47.98
2023-02-03T08:58:55.918Z,48.96
2023-02-03T09:03:58.497Z,48.34
2023-02-03T09:09:01.156Z,49.14
2023-02-03T09:14:07.458Z,48.00
2023-02-03T09:19:10.223Z,48.19
2023-02-03T09:24:12.639Z,47.86
2023-02-03T09:29:15.218Z,48.52
2023-02-03T09:34:17.935Z,47.95
2023-02-03T09:39:20.453Z,48.07
2023-02-03T09:44:43.099Z,48.71
2023-02-03T09:50:01.965Z,48.22
2023-02-03T09:55:20.821Z,49.40
2023-02-03T10:00:31.150Z,48.12
2023-02-03T10:05:33.538Z,47.58
2023-02-03T10:11:12.751Z,48.00
2023-02-03T10:16:30.304Z,47.92
2023-02-03T10:21:47.475Z,47.76
2023-02-03T10:26:51.370Z,46.81
2023-02-03T10:31:58.886Z,45.88
2023-02-03T10:37:23.213Z,45.68
2023-02-03T10:42:25.972Z,45.60
2023-02-03T10:47:44.011Z,46.11
2023-02-03T10:52:47.125Z,45.88
2023-02-03T10:57:50.327Z,44.09
2023-02-03T11:03:42.137Z,44.21
2023-02-03T11:08:47.894Z,45.04
2023-02-03T11:14:02.546Z,44.58
2023-02-03T11:19:22.600Z,44.23
2023-02-03T11:24:25.031Z,44.39
2023-02-03T11:29:30.951Z,44.54
2023-02-03T11:34:34.853Z,44.41
2023-02-03T11:39:37.345Z,45.03
2023-02-03T11:44:39.734Z,45.13
2023-02-03T11:49:59.740Z,45.90
2023-02-03T11:55:21.254Z,46.42
2023-02-03T12:00:37.533Z,45.82
2023-02-03T12:06:02.747Z,46.03
2023-02-03T12:11:28.664Z,46.37
2023-02-03T12:16:43.257Z,46.97
2023-02-03T12:21:50.424Z,47.15
2023-02-03T12:27:07.251Z,48.92
2023-02-03T12:32:30.896Z,48.55
2023-02-03T12:37:51.593Z,48.90
2023-02-03T12:43:22.248Z,49.15
2023-02-03T12:48:39.610Z,49.61
2023-02-03T12:53:48.569Z,49.55
2023-02-03T12:58:57.790Z,49.28
2023-02-03T13:04:12.156Z,49.48
2023-02-03T13:09:29.411Z,49.15
2023-02-03T13:15:13.101Z,49.23
2023-02-03T13:20:21.779Z,50.29
2023-02-03T13:25:42.089Z,50.36
2023-02-03T13:31:24.050Z,51.10
2023-02-03T13:37:03.840Z,51.16
2023-02-03T13:42:24.515Z,51.73
2023-02-03T13:47:30.199Z,52.01
2023-02-03T13:52:47.840Z,52.18
2023-02-03T13:57:53.120Z,52.32
2023-02-03T14:02:56.925Z,52.71
2023-02-03T14:08:30.723Z,53.04
2023-02-03T14:13:33.127Z,52.47
2023-02-03T14:18:45.463Z,52.48
2023-02-03T14:23:57.777Z,52.93
2023-02-03T14:29:01.143Z,53.03
2023-02-03T14:34:14.784Z,53.16
2023-02-03T14:39:22.834Z,52.97
2023-02-03T14:44:55.076Z,53.22
2023-02-03T14:50:06.332Z,53.99
2023-02-03T14:55:40.993Z,53.56
2023-02-03T15:00:43.531Z,53.30
2023-02-03T15:05:48.359Z,53.50
2023-02-03T15:10:50.852Z,53.57
2023-02-03T15:15:56.071Z,53.61
2023-02-03T15:20:59.155Z,53.33
2023-02-03T15:26:04.134Z,53.57
2023-02-03T15:31:28.177Z,53.71
2023-02-03T15:36:52.499Z,53.98
2023-02-03T15:41:57.307Z,54.41
2023-02-03T15:47:03.148Z,54.41
2023-02-03T15:52:10.741Z,54.41
2023-02-03T15:57:19.058Z,54.39
2023-02-03T16:02:47.548Z,54.10
2023-02-03T16:07:50.022Z,54.54
2023-02-03T16:12:52.455Z,54.23
2023-02-03T16:17:58.238Z,54.46
2023-02-03T16:23:05.379Z,54.67
2023-02-03T16:28:32.035Z,54.34
2023-02-03T16:33:53.416Z,54.04
2023-02-03T16:39:14.676Z,54.46
2023-02-03T16:44:38.001Z,54.14
2023-02-03T16:49:59.237Z,54.33
2023-02-03T16:55:01.764Z,54.56
2023-02-03T17:00:06.451Z,54.64
2023-02-03T17:05:08.923Z,55.08
2023-02-03T17:10:12.065Z,54.80
2023-02-03T17:15:16.020Z,54.62
2023-02-03T17:20:18.711Z,54.63
2023-02-03T17:25:23.209Z,54.78
2023-02-03T17:30:26.763Z,54.43
2023-02-03T17:35:40.155Z,54.35
2023-02-03T17:56:54.571Z,54.35
2023-02-03T18:01:59.809Z,54.46
2023-02-03T18:07:04.968Z,55.07
2023-02-03T18:12:13.613Z,54.92
2023-02-03T18:17:15.903Z,55.05
2023-02-03T18:22:18.293Z,55.62
2023-02-03T18:27:25.817Z,55.42
2023-02-03T18:32:30.558Z,55.13
2023-02-03T18:37:33.056Z,55.57
2023-02-03T18:42:38.469Z,56.18
2023-02-03T18:47:43.684Z,55.58
2023-02-03T18:52:54.149Z,55.95
2023-02-03T18:57:59.698Z,56.98
2023-02-03T19:03:02.197Z,56.65
2023-02-03T19:08:04.671Z,56.47
2023-02-03T19:13:10.241Z,56.96
2023-02-03T19:18:12.797Z,56.64
2023-02-03T19:23:18.094Z,56.77
2023-02-03T19:28:30.465Z,57.46
2023-02-03T19:33:37.140Z,57.31
2023-02-03T19:38:39.762Z,57.02
2023-02-03T19:43:42.246Z,57.72
2023-02-03T19:48:47.080Z,57.27
2023-02-03T19:53:54.776Z,57.69
2023-02-03T19:58:57.246Z,57.65
2023-02-03T20:04:00.257Z,57.19
2023-02-03T20:09:04.441Z,57.20
2023-02-03T20:14:06.986Z,57.13
2023-02-03T20:19:09.426Z,57.53
2023-02-03T20:24:12.132Z,57.28
2023-02-03T20:29:14.656Z,57.14
2023-02-03T20:34:17.170Z,57.44
2023-02-03T20:39:20.995Z,57.81
2023-02-03T20:44:23.538Z,57.20
2023-02-03T20:49:26.224Z,58.00
2023-02-03T20:54:28.682Z,57.60
2023-02-03T20:59:32.051Z,57.23
2023-02-03T21:04:53.196Z,56.90
2023-02-03T21:09:57.774Z,57.17
2023-02-03T21:15:00.298Z,57.70
2023-02-03T21:20:02.688Z,56.61
2023-02-03T21:25:07.406Z,56.71
2023-02-03T21:30:35.497Z,56.70
2023-02-03T21:35:38.618Z,56.66
2023-02-03T21:40:41.278Z,57.04
2023-02-03T21:45:44.678Z,57.39
2023-02-03T21:50:47.225Z,57.18
2023-02-03T21:55:49.796Z,56.87
2023-02-03T22:00:57.529Z,57.08
2023-02-03T22:06:09.240Z,57.30
2023-02-03T22:11:12.000Z,57.83
2023-02-03T22:16:17.464Z,57.72
2023-02-03T22:21:20.071Z,57.49
2023-02-03T22:26:22.881Z,56.55
2023-02-03T22:31:25.360Z,57.04
2023-02-03T22:36:27.964Z,57.67
2023-02-03T22:41:30.463Z,57.67
2023-02-03T22:46:32.937Z,58.03
2023-02-03T22:51:35.346Z,57.90
2023-02-03T22:56:37.814Z,57.89
2023-02-03T23:01:40.245Z,58.71
2023-02-03T23:06:42.659Z,58.65
2023-02-03T23:11:45.294Z,58.72
2023-02-03T23:16:47.757Z,58.71
2023-02-03T23:21:50.352Z,58.68
2023-02-03T23:26:52.853Z,58.71
2023-02-03T23:31:55.329Z,58.93
2023-02-03T23:37:00.046Z,58.89
2023-02-03T23:42:02.484Z,59.01
2023-02-03T23:47:05.020Z,59.51
2023-02-03T23:52:07.497Z,58.96
2023-02-03T23:57:10.044Z,59.15
